La rose des vents
Donnes mto: Semaine 22/09/08 - 28/09/08 (S 39)
Date Horaire Temp. E. Hum. E. P.atmo. Pluie Vent 1mn Direction Ensoleilleme Ev.Tr. Solaire P. de rose Temp au vent Rafales
22/09/2008 00:00 15,2 C 91 % 1012,0 hPa 0,0 l/m 0,4 km/h (0 Bft) E 0,00 h 0,025 mm 0 W/m 13,8 C 15,2 C 0,6 km/h (0 Bft)
22/09/2008 01:00 15,3 C 91 % 1011,7 hPa 0,0 l/m 1,0 km/h (0 Bft) N 0,00 h 0,000 mm 0 W/m 13,9 C 15,3 C 1,7 km/h (1 Bft)
22/09/2008 02:00 15,3 C 92 % 1011,3 hPa 0,0 l/m 3,2 km/h (1 Bft) NO 0,00 h 0,025 mm 0 W/m 14,0 C 15,3 C 5,2 km/h (1 Bft)
22/09/2008 03:00 15,1 C 92 % 1010,9 hPa 0,0 l/m 2,0 km/h (1 Bft) N 0,00 h 0,025 mm 0 W/m 13,8 C 15,1 C 3,7 km/h (1 Bft)
22/09/2008 04:00 14,6 C 92 % 1010,5 hPa 0,0 l/m 2,4 km/h (1 Bft) N-NE 0,00 h 0,025 mm 0 W/m 13,3 C 14,6 C 4,7 km/h (1 Bft)
22/09/2008 05:00 14,6 C 92 % 1010,4 hPa 0,0 l/m 0,9 km/h (0 Bft) N-NE 0,00 h 0,025 mm 0 W/m 13,3 C 14,6 C 2,3 km/h (1 Bft)
22/09/2008 06:00 14,8 C 92 % 1010,4 hPa 0,0 l/m 1,0 km/h (0 Bft) N 0,00 h 0,000 mm 0 W/m 13,5 C 14,8 C 2,8 km/h (1 Bft)
22/09/2008 07:00 14,9 C 92 % 1010,7 hPa 0,0 l/m 1,2 km/h (1 Bft) N 0,00 h 0,000 mm 11 W/m 13,6 C 14,9 C 3,1 km/h (1 Bft)
22/09/2008 08:00 15,1 C 91 % 1011,1 hPa 4,6 l/m 7,1 km/h (2 Bft) NE 0,00 h 0,000 mm 11 W/m 13,7 C 15,1 C 10,8 km/h (2 Bft)
22/09/2008 09:00 14,8 C 92 % 1011,5 hPa 0,6 l/m 6,6 km/h (2 Bft) E-NE 0,00 h 0,025 mm 18 W/m 13,5 C 14,8 C 10,1 km/h (2 Bft)
22/09/2008 10:00 14,7 C 93 % 1011,9 hPa 0,0 l/m 13,3 km/h (3 Bft) E-NE 0,02 h 0,025 mm 126 W/m 13,6 C 14,7 C 18,6 km/h (3 Bft)
22/09/2008 11:00 15,9 C 88 % 1012,0 hPa 0,0 l/m 15,1 km/h (3 Bft) E-NE 0,13 h 0,076 mm 231 W/m 13,8 C 15,9 C 21,2 km/h (4 Bft)
22/09/2008 12:00 15,8 C 84 % 1012,2 hPa 0,0 l/m 12,0 km/h (2 Bft) NE 0,00 h 0,152 mm 124 W/m 13,1 C 15,8 C 17,8 km/h (3 Bft)
22/09/2008 13:00 16,5 C 83 % 1011,9 hPa 0,0 l/m 11,5 km/h (2 Bft) E-NE 0,00 h 0,102 mm 176 W/m 13,6 C 16,5 C 16,3 km/h (3 Bft)
22/09/2008 14:00 17,5 C 77 % 1011,5 hPa 0,0 l/m 10,9 km/h (2 Bft) E-NE 0,13 h 0,152 mm 294 W/m 13,4 C 17,5 C 16,4 km/h (3 Bft)
22/09/2008 15:00 17,8 C 72 % 1011,2 hPa 0,0 l/m 12,8 km/h (3 Bft) E-NE 0,13 h 0,203 mm 249 W/m 12,6 C 17,8 C 18,3 km/h (3 Bft)
22/09/2008 16:00 18,2 C 68 % 1010,8 hPa 0,0 l/m 14,4 km/h (3 Bft) E-NE 0,28 h 0,203 mm 273 W/m 12,1 C 18,2 C 19,5 km/h (3 Bft)
22/09/2008 17:00 17,3 C 71 % 1010,8 hPa 0,0 l/m 9,1 km/h (2 Bft) E 0,05 h 0,229 mm 109 W/m 11,9 C 17,3 C 13,4 km/h (3 Bft)
22/09/2008 18:00 16,9 C 71 % 1010,7 hPa 0,0 l/m 5,9 km/h (2 Bft) E-NE 0,07 h 0,102 mm 55 W/m 11,7 C 16,9 C 8,6 km/h (2 Bft)
22/09/2008 19:00 16,1 C 74 % 1010,7 hPa 0,0 l/m 1,1 km/h (1 Bft) E-NE 0,00 h 0,051 mm 5 W/m 11,5 C 16,1 C 2,2 km/h (1 Bft)
22/09/2008 20:00 15,4 C 77 % 1011,0 hPa 0,0 l/m 2,7 km/h (1 Bft) N-NO 0,00 h 0,000 mm 0 W/m 11,4 C 15,4 C 4,7 km/h (1 Bft)
22/09/2008 21:00 15,0 C 80 % 1011,3 hPa 0,0 l/m 1,9 km/h (1 Bft) N-NO 0,00 h 0,025 mm 0 W/m 11,5 C 15,0 C 4,1 km/h (1 Bft)
22/09/2008 22:00 14,6 C 80 % 1011,1 hPa 0,0 l/m 0,2 km/h (0 Bft) N-NO 0,00 h 0,025 mm 0 W/m 11,2 C 14,6 C 0,5 km/h (0 Bft)
22/09/2008 23:00 14,1 C 80 % 1011,0 hPa 0,0 l/m 0,6 km/h (0 Bft) N-NO 0,00 h 0,025 mm 0 W/m 10,7 C 14,1 C 1,9 km/h (1 Bft)
23/09/2008 00:00 13,9 C 79 % 1010,9 hPa 0,0 l/m 2,5 km/h (1 Bft) N-NO 0,00 h 0,025 mm 0 W/m 10,3 C 13,9 C 4,2 km/h (1 Bft)
23/09/2008 01:00 14,2 C 76 % 1010,8 hPa 0,0 l/m 3,2 km/h (1 Bft) N-NO 0,00 h 0,025 mm 0 W/m 10,0 C 14,2 C 5,4 km/h (1 Bft)
23/09/2008 02:00 14,4 C 77 % 1010,6 hPa 0,0 l/m 4,5 km/h (1 Bft) N-NO 0,00 h 0,025 mm 0 W/m 10,4 C 14,4 C 6,7 km/h (2 Bft)
23/09/2008 03:00 14,4 C 78 % 1010,0 hPa 0,2 l/m 4,8 km/h (1 Bft) N-NO 0,00 h 0,025 mm 0 W/m 10,7 C 14,4 C 6,9 km/h (2 Bft)
23/09/2008 04:00 13,6 C 81 % 1009,5 hPa 0,2 l/m 4,3 km/h (1 Bft) NO 0,00 h 0,025 mm 0 W/m 10,4 C 13,6 C 6,2 km/h (2 Bft)
23/09/2008 05:00 13,5 C 81 % 1009,3 hPa 0,0 l/m 3,0 km/h (1 Bft) NO 0,00 h 0,025 mm 0 W/m 10,4 C 13,5 C 5,0 km/h (1 Bft)
23/09/2008 06:00 13,6 C 77 % 1008,9 hPa 0,0 l/m 4,1 km/h (1 Bft) NO 0,00 h 0,025 mm 0 W/m 9,6 C 13,6 C 5,9 km/h (2 Bft)
23/09/2008 07:00 13,7 C 73 % 1009,1 hPa 0,0 l/m 2,1 km/h (1 Bft) NO 0,00 h 0,025 mm 13 W/m 9,0 C 13,7 C 3,7 km/h (1 Bft)
23/09/2008 08:00 13,9 C 74 % 1009,4 hPa 0,0 l/m 4,4 km/h (1 Bft) NO 0,00 h 0,025 mm 46 W/m 9,3 C 13,9 C 6,6 km/h (2 Bft)
23/09/2008 09:00 15,7 C 67 % 1009,5 hPa 0,0 l/m 1,3 km/h (1 Bft) N-NO 0,42 h 0,051 mm 214 W/m 9,7 C 15,7 C 2,5 km/h (1 Bft)
23/09/2008 10:00 17,5 C 64 % 1010,0 hPa 0,0 l/m 4,5 km/h (1 Bft) N-NE 0,28 h 0,127 mm 323 W/m 10,6 C 17,5 C 7,1 km/h (2 Bft)
23/09/2008 11:00 20,4 C 53 % 1010,2 hPa 0,0 l/m 10,7 km/h (2 Bft) NE 1,00 h 0,203 mm 780 W/m 10,6 C 20,4 C 16,3 km/h (3 Bft)
23/09/2008 12:00 19,6 C 55 % 1010,3 hPa 0,0 l/m 16,3 km/h (3 Bft) NE 0,62 h 0,533 mm 515 W/m 10,2 C 19,6 C 22,4 km/h (4 Bft)
23/09/2008 13:00 20,0 C 60 % 1010,2 hPa 0,0 l/m 25,5 km/h (4 Bft) E-NE 0,65 h 0,406 mm 680 W/m 11,9 C 20,0 C 34,1 km/h (5 Bft)
23/09/2008 14:00 19,3 C 62 % 1010,3 hPa 0,0 l/m 22,2 km/h (4 Bft) E-NE 0,65 h 0,508 mm 593 W/m 11,9 C 19,3 C 30,7 km/h (5 Bft)
23/09/2008 15:00 18,2 C 62 % 1010,3 hPa 0,0 l/m 19,0 km/h (3 Bft) E-NE 0,18 h 0,457 mm 241 W/m 10,8 C 18,2 C 26,2 km/h (4 Bft)
23/09/2008 16:00 15,1 C 83 % 1010,5 hPa 0,8 l/m 9,2 km/h (2 Bft) N-NO 0,00 h 0,229 mm 108 W/m 12,3 C 15,1 C 14,6 km/h (3 Bft)
23/09/2008 17:00 14,3 C 89 % 1010,3 hPa 0,0 l/m 6,7 km/h (2 Bft) N-NO 0,07 h 0,076 mm 142 W/m 12,5 C 14,3 C 10,3 km/h (2 Bft)
23/09/2008 18:00 14,7 C 84 % 1010,1 hPa 0,0 l/m 4,7 km/h (1 Bft) NO 0,00 h 0,076 mm 44 W/m 12,1 C 14,7 C 7,0 km/h (2 Bft)
23/09/2008 19:00 14,2 C 84 % 1010,5 hPa 0,0 l/m 6,8 km/h (2 Bft) O-NO 0,00 h 0,025 mm 8 W/m 11,5 C 14,2 C 10,2 km/h (2 Bft)
23/09/2008 20:00 13,9 C 82 % 1010,8 hPa 0,0 l/m 6,8 km/h (2 Bft) O-NO 0,00 h 0,025 mm 0 W/m 11,0 C 13,9 C 10,0 km/h (2 Bft)
23/09/2008 21:00 14,1 C 79 % 1011,1 hPa 0,0 l/m 6,1 km/h (2 Bft) O-NO 0,00 h 0,025 mm 0 W/m 10,5 C 14,1 C 9,2 km/h (2 Bft)
23/09/2008 22:00 14,2 C 76 % 1011,7 hPa 0,0 l/m 3,9 km/h (1 Bft) O-NO 0,00 h 0,025 mm 0 W/m 10,1 C 14,2 C 5,7 km/h (1 Bft)
23/09/2008 23:00 14,5 C 74 % 1011,9 hPa 0,0 l/m 4,9 km/h (1 Bft) NO 0,00 h 0,025 mm 0 W/m 10,0 C 14,5 C 7,1 km/h (2 Bft)
24/09/2008 00:00 14,8 C 71 % 1011,9 hPa 0,0 l/m 4,9 km/h (1 Bft) O-NO 0,00 h 0,025 mm 0 W/m 9,6 C 14,8 C 7,8 km/h (2 Bft)
24/09/2008 01:00 14,7 C 69 % 1011,9 hPa 0,0 l/m 4,6 km/h (1 Bft) NO 0,00 h 0,051 mm 0 W/m 9,1 C 14,7 C 7,2 km/h (2 Bft)
24/09/2008 02:00 14,6 C 66 % 1011,9 hPa 0,0 l/m 3,3 km/h (1 Bft) NO 0,00 h 0,051 mm 0 W/m 8,4 C 14,6 C 5,6 km/h (1 Bft)
24/09/2008 03:00 14,2 C 67 % 1011,8 hPa 0,0 l/m 4,0 km/h (1 Bft) O-NO 0,00 h 0,051 mm 0 W/m 8,3 C 14,2 C 6,4 km/h (2 Bft)
24/09/2008 04:00 14,5 C 66 % 1011,7 hPa 0,0 l/m 5,0 km/h (1 Bft) NO 0,00 h 0,051 mm 0 W/m 8,3 C 14,5 C 7,5 km/h (2 Bft)
24/09/2008 05:00 13,8 C 67 % 1011,7 hPa 0,0 l/m 3,6 km/h (1 Bft) O-NO 0,00 h 0,051 mm 0 W/m 7,8 C 13,8 C 5,6 km/h (1 Bft)
24/09/2008 06:00 13,2 C 69 % 1012,1 hPa 0,0 l/m 4,0 km/h (1 Bft) O-NO 0,00 h 0,051 mm 0 W/m 7,6 C 13,2 C 5,8 km/h (2 Bft)
24/09/2008 07:00 13,3 C 68 % 1012,4 hPa 0,0 l/m 8,0 km/h (2 Bft) O-NO 0,03 h 0,051 mm 17 W/m 7,4 C 13,3 C 11,7 km/h (2 Bft)
24/09/2008 08:00 14,1 C 65 % 1012,9 hPa 0,0 l/m 11,3 km/h (2 Bft) O-NO 0,00 h 0,051 mm 68 W/m 7,6 C 14,1 C 15,8 km/h (3 Bft)
24/09/2008 09:00 15,5 C 63 % 1013,3 hPa 0,0 l/m 4,7 km/h (1 Bft) O-NO 0,03 h 0,102 mm 150 W/m 8,5 C 15,5 C 6,5 km/h (2 Bft)
24/09/2008 10:00 16,8 C 63 % 1013,8 hPa 0,0 l/m 0,5 km/h (0 Bft) NO 0,32 h 0,102 mm 287 W/m 9,6 C 16,8 C 1,3 km/h (1 Bft)
24/09/2008 11:00 18,5 C 57 % 1013,8 hPa 0,0 l/m 3,8 km/h (1 Bft) SO 0,18 h 0,152 mm 317 W/m 9,9 C 18,5 C 5,9 km/h (2 Bft)
24/09/2008 12:00 19,0 C 55 % 1013,7 hPa 0,0 l/m 6,1 km/h (2 Bft) S-SO 0,47 h 0,203 mm 411 W/m 9,8 C 19,0 C 8,8 km/h (2 Bft)
24/09/2008 13:00 19,9 C 52 % 1013,4 hPa 0,0 l/m 8,2 km/h (2 Bft) S-SE 0,40 h 0,279 mm 450 W/m 9,7 C 19,9 C 12,5 km/h (3 Bft)
24/09/2008 14:00 19,8 C 52 % 1013,1 hPa 0,0 l/m 9,6 km/h (2 Bft) S 0,23 h 0,330 mm 380 W/m 9,6 C 19,8 C 14,2 km/h (3 Bft)
24/09/2008 15:00 17,7 C 60 % 1013,6 hPa 0,0 l/m 10,7 km/h (2 Bft) O-SO 0,00 h 0,279 mm 124 W/m 9,7 C 17,7 C 14,9 km/h (3 Bft)
24/09/2008 16:00 17,5 C 61 % 1013,6 hPa 0,0 l/m 6,0 km/h (2 Bft) O-SO 0,17 h 0,127 mm 186 W/m 9,9 C 17,5 C 8,7 km/h (2 Bft)
24/09/2008 17:00 18,2 C 58 % 1013,6 hPa 0,0 l/m 7,4 km/h (2 Bft) O-SO 0,15 h 0,152 mm 126 W/m 9,9 C 18,2 C 10,0 km/h (2 Bft)
24/09/2008 18:00 16,7 C 62 % 1014,1 hPa 0,0 l/m 12,4 km/h (3 Bft) O-SO 0,43 h 0,127 mm 85 W/m 9,5 C 16,7 C 17,7 km/h (3 Bft)
24/09/2008 19:00 15,4 C 67 % 1014,3 hPa 0,0 l/m 11,9 km/h (2 Bft) O-SO 0,05 h 0,102 mm 14 W/m 9,3 C 15,4 C 16,4 km/h (3 Bft)
24/09/2008 20:00 14,5 C 73 % 1014,3 hPa 0,0 l/m 9,0 km/h (2 Bft) O-SO 0,00 h 0,051 mm 0 W/m 9,7 C 14,5 C 12,2 km/h (2 Bft)
24/09/2008 21:00 13,8 C 74 % 1014,6 hPa 0,0 l/m 3,8 km/h (1 Bft) N-NO 0,00 h 0,051 mm 0 W/m 9,3 C 13,8 C 5,4 km/h (1 Bft)
24/09/2008 22:00 13,2 C 75 % 1014,7 hPa 0,0 l/m 1,8 km/h (1 Bft) N-NO 0,00 h 0,025 mm 0 W/m 9,0 C 13,2 C 3,2 km/h (1 Bft)
24/09/2008 23:00 13,2 C 76 % 1014,7 hPa 0,0 l/m 2,9 km/h (1 Bft) NO 0,00 h 0,025 mm 0 W/m 9,0 C 13,2 C 4,3 km/h (1 Bft)
25/09/2008 00:00 12,6 C 77 % 1014,7 hPa 0,0 l/m 3,8 km/h (1 Bft) O-NO 0,00 h 0,025 mm 0 W/m 8,7 C 12,6 C 5,8 km/h (2 Bft)
25/09/2008 01:00 12,2 C 78 % 1014,7 hPa 0,0 l/m 4,1 km/h (1 Bft) O-NO 0,00 h 0,025 mm 0 W/m 8,5 C 12,2 C 6,2 km/h (2 Bft)
25/09/2008 02:00 11,9 C 78 % 1014,8 hPa 0,0 l/m 7,2 km/h (2 Bft) O-NO 0,00 h 0,025 mm 0 W/m 8,2 C 11,9 C 10,0 km/h (2 Bft)
25/09/2008 03:00 12,1 C 77 % 1014,8 hPa 0,0 l/m 5,7 km/h (1 Bft) NO 0,00 h 0,025 mm 0 W/m 8,1 C 12,1 C 8,5 km/h (2 Bft)
25/09/2008 04:00 12,4 C 74 % 1014,7 hPa 0,0 l/m 4,3 km/h (1 Bft) NO 0,00 h 0,025 mm 0 W/m 7,9 C 12,4 C 6,3 km/h (2 Bft)
25/09/2008 05:00 12,2 C 73 % 1014,8 hPa 0,0 l/m 3,4 km/h (1 Bft) NO 0,00 h 0,025 mm 0 W/m 7,5 C 12,2 C 6,1 km/h (2 Bft)
25/09/2008 06:00 11,8 C 74 % 1014,8 hPa 0,0 l/m 4,6 km/h (1 Bft) NO 0,00 h 0,025 mm 0 W/m 7,3 C 11,8 C 6,7 km/h (2 Bft)
25/09/2008 07:00 11,8 C 73 % 1015,2 hPa 0,0 l/m 4,1 km/h (1 Bft) O-NO 0,05 h 0,025 mm 15 W/m 7,2 C 11,8 C 6,1 km/h (2 Bft)
25/09/2008 08:00 12,5 C 72 % 1015,7 hPa 0,0 l/m 4,2 km/h (1 Bft) NO 0,45 h 0,025 mm 98 W/m 7,6 C 12,5 C 6,3 km/h (2 Bft)
25/09/2008 09:00 15,3 C 63 % 1016,1 hPa 0,0 l/m 0,6 km/h (0 Bft) NO 0,73 h 0,076 mm 242 W/m 8,4 C 15,3 C 1,5 km/h (1 Bft)
25/09/2008 10:00 18,1 C 59 % 1016,4 hPa 0,0 l/m 3,0 km/h (1 Bft) E-NE 1,00 h 0,127 mm 453 W/m 9,8 C 18,1 C 5,0 km/h (1 Bft)
25/09/2008 11:00 19,6 C 52 % 1016,6 hPa 0,0 l/m 4,5 km/h (1 Bft) S 1,00 h 0,279 mm 573 W/m 9,5 C 19,6 C 7,4 km/h (2 Bft)
25/09/2008 12:00 20,2 C 55 % 1016,3 hPa 0,0 l/m 7,9 km/h (2 Bft) S-SE 0,92 h 0,356 mm 622 W/m 10,9 C 20,2 C 12,4 km/h (3 Bft)
25/09/2008 13:00 20,6 C 56 % 1016,3 hPa 0,0 l/m 11,8 km/h (2 Bft) S-SE 1,00 h 0,406 mm 689 W/m 11,6 C 20,6 C 17,2 km/h (3 Bft)
25/09/2008 14:00 20,8 C 53 % 1016,2 hPa 0,0 l/m 10,2 km/h (2 Bft) S 1,00 h 0,483 mm 647 W/m 10,9 C 20,8 C 15,4 km/h (3 Bft)
25/09/2008 15:00 20,3 C 53 % 1016,3 hPa 0,0 l/m 7,4 km/h (2 Bft) E 0,67 h 0,457 mm 461 W/m 10,5 C 20,3 C 12,9 km/h (3 Bft)
25/09/2008 16:00 18,8 C 58 % 1016,4 hPa 0,0 l/m 3,7 km/h (1 Bft) E 0,07 h 0,305 mm 163 W/m 10,3 C 18,8 C 6,4 km/h (2 Bft)
25/09/2008 17:00 18,4 C 61 % 1016,5 hPa 0,0 l/m 5,5 km/h (1 Bft) O-NO 0,15 h 0,127 mm 127 W/m 10,8 C 18,4 C 8,0 km/h (2 Bft)
25/09/2008 18:00 16,6 C 71 % 1016,9 hPa 0,0 l/m 8,0 km/h (2 Bft) O-NO 0,08 h 0,102 mm 48 W/m 11,3 C 16,6 C 11,0 km/h (2 Bft)
25/09/2008 19:00 16,1 C 73 % 1017,2 hPa 0,0 l/m 8,5 km/h (2 Bft) O-NO 0,00 h 0,076 mm 12 W/m 11,2 C 16,1 C 11,3 km/h (2 Bft)
25/09/2008 20:00 15,4 C 76 % 1017,5 hPa 0,2 l/m 8,1 km/h (2 Bft) O-NO 0,00 h 0,051 mm 0 W/m 11,2 C 15,4 C 11,1 km/h (2 Bft)
25/09/2008 21:00 14,5 C 84 % 1017,9 hPa 0,0 l/m 6,4 km/h (2 Bft) O 0,00 h 0,051 mm 0 W/m 11,9 C 14,5 C 8,3 km/h (2 Bft)
25/09/2008 22:00 14,3 C 86 % 1018,0 hPa 0,0 l/m 1,8 km/h (1 Bft) N-NO 0,00 h 0,025 mm 0 W/m 12,0 C 14,3 C 3,1 km/h (1 Bft)
25/09/2008 23:00 14,2 C 85 % 1018,1 hPa 0,0 l/m 3,3 km/h (1 Bft) O-NO 0,00 h 0,025 mm 0 W/m 11,7 C 14,2 C 4,8 km/h (1 Bft)
26/09/2008 00:00 14,5 C 82 % 1018,3 hPa 0,0 l/m 3,9 km/h (1 Bft) O-NO 0,00 h 0,025 mm 0 W/m 11,5 C 14,5 C 5,1 km/h (1 Bft)
26/09/2008 01:00 14,6 C 79 % 1018,3 hPa 0,0 l/m 4,7 km/h (1 Bft) O-NO 0,00 h 0,025 mm 0 W/m 11,0 C 14,6 C 6,6 km/h (2 Bft)
26/09/2008 02:00 14,5 C 76 % 1018,3 hPa 0,0 l/m 3,7 km/h (1 Bft) O-NO 0,00 h 0,025 mm 0 W/m 10,4 C 14,5 C 6,0 km/h (2 Bft)
26/09/2008 03:00 14,2 C 76 % 1018,3 hPa 0,0 l/m 3,1 km/h (1 Bft) NO 0,00 h 0,025 mm 0 W/m 10,0 C 14,2 C 5,2 km/h (1 Bft)
26/09/2008 04:00 14,0 C 76 % 1018,3 hPa 0,0 l/m 4,6 km/h (1 Bft) NO 0,00 h 0,025 mm 0 W/m 9,8 C 14,0 C 6,3 km/h (2 Bft)
26/09/2008 05:00 13,9 C 75 % 1018,4 hPa 0,0 l/m 3,9 km/h (1 Bft) NO 0,00 h 0,025 mm 0 W/m 9,5 C 13,9 C 5,8 km/h (2 Bft)
26/09/2008 06:00 14,1 C 74 % 1018,5 hPa 0,0 l/m 5,1 km/h (1 Bft) N-NO 0,00 h 0,025 mm 0 W/m 9,5 C 14,1 C 7,6 km/h (2 Bft)
26/09/2008 07:00 14,4 C 72 % 1018,8 hPa 0,0 l/m 4,7 km/h (1 Bft) NO 0,07 h 0,051 mm 20 W/m 9,3 C 14,4 C 6,7 km/h (2 Bft)
26/09/2008 08:00 15,2 C 68 % 1019,1 hPa 0,0 l/m 4,0 km/h (1 Bft) NO 0,28 h 0,025 mm 111 W/m 9,3 C 15,2 C 6,0 km/h (2 Bft)
26/09/2008 09:00 17,6 C 62 % 1019,6 hPa 0,0 l/m 1,1 km/h (0 Bft) N-NO 0,80 h 0,076 mm 276 W/m 10,2 C 17,6 C 2,9 km/h (1 Bft)
26/09/2008 10:00 20,2 C 50 % 1019,9 hPa 0,0 l/m 5,2 km/h (1 Bft) E-NE 1,00 h 0,152 mm 466 W/m 9,4 C 20,2 C 8,2 km/h (2 Bft)
26/09/2008 11:00 21,2 C 47 % 1020,1 hPa 0,2 l/m 9,7 km/h (2 Bft) E-NE 0,90 h 0,305 mm 537 W/m 9,5 C 21,2 C 15,3 km/h (3 Bft)
26/09/2008 12:00 21,7 C 49 % 1020,1 hPa 0,0 l/m 10,6 km/h (2 Bft) E 1,00 h 0,406 mm 653 W/m 10,4 C 21,7 C 16,5 km/h (3 Bft)
26/09/2008 13:00 21,3 C 52 % 1020,2 hPa 0,0 l/m 14,7 km/h (3 Bft) E 0,85 h 0,457 mm 608 W/m 10,9 C 21,3 C 21,8 km/h (4 Bft)
26/09/2008 14:00 18,7 C 63 % 1020,2 hPa 1,0 l/m 14,7 km/h (3 Bft) E 0,00 h 0,457 mm 64 W/m 11,3 C 18,7 C 21,4 km/h (4 Bft)
26/09/2008 15:00 14,1 C 83 % 1021,6 hPa 2,4 l/m 14,4 km/h (3 Bft) O-NO 0,00 h 0,127 mm 60 W/m 11,3 C 14,1 C 19,2 km/h (3 Bft)
26/09/2008 16:00 13,5 C 86 % 1021,3 hPa 0,0 l/m 14,3 km/h (3 Bft) O-NO 0,00 h 0,076 mm 145 W/m 11,1 C 13,5 C 18,7 km/h (3 Bft)
26/09/2008 17:00 15,2 C 80 % 1021,1 hPa 0,0 l/m 6,9 km/h (2 Bft) O-NO 0,25 h 0,102 mm 138 W/m 11,9 C 15,2 C 9,8 km/h (2 Bft)
26/09/2008 18:00 15,3 C 77 % 1021,0 hPa 0,0 l/m 4,0 km/h (1 Bft) NO 0,00 h 0,102 mm 38 W/m 11,3 C 15,3 C 5,6 km/h (1 Bft)
26/09/2008 19:00 14,2 C 77 % 1021,5 hPa 0,0 l/m 4,5 km/h (1 Bft) O-NO 0,20 h 0,051 mm 17 W/m 10,2 C 14,2 C 7,0 km/h (2 Bft)
26/09/2008 20:00 13,2 C 79 % 1021,8 hPa 0,0 l/m 4,6 km/h (1 Bft) O-NO 0,00 h 0,025 mm 0 W/m 9,7 C 13,2 C 7,1 km/h (2 Bft)
26/09/2008 21:00 13,0 C 77 % 1022,1 hPa 0,0 l/m 3,3 km/h (1 Bft) O-NO 0,00 h 0,025 mm 0 W/m 9,1 C 13,0 C 5,7 km/h (1 Bft)
26/09/2008 22:00 12,9 C 77 % 1022,1 hPa 0,0 l/m 4,7 km/h (1 Bft) O 0,00 h 0,025 mm 0 W/m 8,9 C 12,9 C 7,3 km/h (2 Bft)
26/09/2008 23:00 12,9 C 74 % 1022,3 hPa 0,0 l/m 5,1 km/h (1 Bft) NO 0,00 h 0,025 mm 0 W/m 8,4 C 12,9 C 7,0 km/h (2 Bft)
27/09/2008 00:00 12,9 C 70 % 1022,3 hPa 0,0 l/m 3,9 km/h (1 Bft) NO 0,00 h 0,025 mm 0 W/m 7,6 C 12,9 C 6,0 km/h (2 Bft)
27/09/2008 01:00 13,2 C 67 % 1022,6 hPa 0,0 l/m 3,7 km/h (1 Bft) N 0,00 h 0,025 mm 0 W/m 7,2 C 13,2 C 6,7 km/h (2 Bft)
27/09/2008 02:00 12,8 C 69 % 1022,8 hPa 0,0 l/m 5,2 km/h (1 Bft) N-NO 0,00 h 0,051 mm 0 W/m 7,3 C 12,8 C 8,1 km/h (2 Bft)
27/09/2008 03:00 12,9 C 72 % 1022,7 hPa 0,0 l/m 5,2 km/h (1 Bft) N-NO 0,00 h 0,051 mm 0 W/m 8,0 C 12,9 C 7,7 km/h (2 Bft)
27/09/2008 04:00 12,8 C 73 % 1022,3 hPa 0,0 l/m 5,5 km/h (1 Bft) NO 0,00 h 0,051 mm 0 W/m 8,1 C 12,8 C 8,3 km/h (2 Bft)
27/09/2008 05:00 12,1 C 72 % 1021,8 hPa 0,0 l/m 5,5 km/h (1 Bft) O 0,00 h 0,051 mm 0 W/m 7,3 C 12,1 C 8,8 km/h (2 Bft)
27/09/2008 06:00 11,2 C 74 % 1021,8 hPa 0,0 l/m 4,7 km/h (1 Bft) NO 0,00 h 0,051 mm 0 W/m 6,7 C 11,2 C 6,6 km/h (2 Bft)
27/09/2008 07:00 11,7 C 72 % 1021,9 hPa 0,0 l/m 6,5 km/h (2 Bft) O-NO 0,02 h 0,025 mm 17 W/m 6,7 C 11,7 C 10,0 km/h (2 Bft)
27/09/2008 08:00 13,0 C 67 % 1022,2 hPa 0,0 l/m 7,4 km/h (2 Bft) O-NO 0,28 h 0,025 mm 83 W/m 7,0 C 13,0 C 10,8 km/h (2 Bft)
27/09/2008 09:00 15,6 C 62 % 1022,3 hPa 0,0 l/m 5,9 km/h (2 Bft) O-NO 0,85 h 0,076 mm 253 W/m 8,3 C 15,6 C 8,4 km/h (2 Bft)
27/09/2008 10:00 18,4 C 57 % 1022,6 hPa 0,0 l/m 3,3 km/h (1 Bft) S 1,00 h 0,178 mm 428 W/m 9,7 C 18,4 C 5,5 km/h (1 Bft)
27/09/2008 11:00 19,4 C 55 % 1022,5 hPa 0,0 l/m 5,4 km/h (1 Bft) S 0,88 h 0,254 mm 521 W/m 10,2 C 19,4 C 8,5 km/h (2 Bft)
27/09/2008 12:00 19,8 C 54 % 1022,1 hPa 0,0 l/m 7,8 km/h (2 Bft) S-SE 0,68 h 0,330 mm 519 W/m 10,1 C 19,8 C 11,9 km/h (2 Bft)
27/09/2008 13:00 19,8 C 51 % 1022,1 hPa 0,0 l/m 8,6 km/h (2 Bft) S-SE 0,52 h 0,356 mm 501 W/m 9,4 C 19,8 C 12,9 km/h (3 Bft)
27/09/2008 14:00 19,5 C 54 % 1021,9 hPa 0,0 l/m 5,5 km/h (1 Bft) E 0,25 h 0,356 mm 313 W/m 10,0 C 19,5 C 9,5 km/h (2 Bft)
27/09/2008 15:00 18,5 C 53 % 1021,7 hPa 0,0 l/m 3,9 km/h (1 Bft) E 0,00 h 0,229 mm 121 W/m 8,9 C 18,5 C 6,4 km/h (2 Bft)
27/09/2008 16:00 18,2 C 54 % 1021,7 hPa 0,0 l/m 3,4 km/h (1 Bft) E 0,00 h 0,102 mm 68 W/m 8,7 C 18,2 C 6,3 km/h (2 Bft)
27/09/2008 17:00 17,7 C 59 % 1021,7 hPa 0,0 l/m 5,8 km/h (2 Bft) O-NO 0,00 h 0,076 mm 95 W/m 9,6 C 17,7 C 8,7 km/h (2 Bft)
27/09/2008 18:00 16,6 C 64 % 1021,7 hPa 0,0 l/m 9,3 km/h (2 Bft) O 0,00 h 0,102 mm 25 W/m 9,8 C 16,6 C 13,9 km/h (3 Bft)
27/09/2008 19:00 16,3 C 62 % 1021,8 hPa 0,0 l/m 11,4 km/h (2 Bft) O-NO 0,00 h 0,076 mm 6 W/m 9,0 C 16,3 C 16,2 km/h (3 Bft)
27/09/2008 20:00 16,3 C 61 % 1021,8 hPa 0,0 l/m 11,0 km/h (2 Bft) O 0,00 h 0,076 mm 0 W/m 8,7 C 16,3 C 15,8 km/h (3 Bft)
27/09/2008 21:00 16,3 C 60 % 1022,1 hPa 0,0 l/m 9,7 km/h (2 Bft) O 0,00 h 0,076 mm 0 W/m 8,6 C 16,3 C 13,6 km/h (3 Bft)
27/09/2008 22:00 15,8 C 62 % 1022,5 hPa 0,0 l/m 3,2 km/h (1 Bft) O-NO 0,00 h 0,076 mm 0 W/m 8,5 C 15,8 C 5,5 km/h (1 Bft)
27/09/2008 23:00 15,1 C 65 % 1022,3 hPa 0,0 l/m 0,4 km/h (0 Bft) O-NO 0,00 h 0,051 mm 0 W/m 8,6 C 15,1 C 0,7 km/h (0 Bft)
28/09/2008 00:00 14,9 C 65 % 1022,4 hPa 0,0 l/m 2,9 km/h (1 Bft) O-NO 0,00 h 0,025 mm 0 W/m 8,3 C 14,9 C 4,3 km/h (1 Bft)
28/09/2008 01:00 14,2 C 67 % 1022,4 hPa 0,0 l/m 1,3 km/h (1 Bft) O-NO 0,00 h 0,051 mm 0 W/m 8,2 C 14,2 C 1,9 km/h (1 Bft)
28/09/2008 02:00 13,3 C 71 % 1022,5 hPa 0,0 l/m 4,4 km/h (1 Bft) O-NO 0,00 h 0,025 mm 0 W/m 8,1 C 13,3 C 6,4 km/h (2 Bft)
28/09/2008 03:00 13,0 C 73 % 1022,2 hPa 0,0 l/m 6,2 km/h (2 Bft) O 0,00 h 0,051 mm 0 W/m 8,3 C 13,0 C 8,5 km/h (2 Bft)
28/09/2008 04:00 12,7 C 73 % 1022,1 hPa 0,0 l/m 8,3 km/h (2 Bft) O-NO 0,00 h 0,051 mm 0 W/m 8,1 C 12,7 C 11,3 km/h (2 Bft)
28/09/2008 05:00 12,3 C 75 % 1021,8 hPa 0,0 l/m 10,6 km/h (2 Bft) O-NO 0,00 h 0,051 mm 0 W/m 8,0 C 12,3 C 14,8 km/h (3 Bft)
28/09/2008 06:00 12,0 C 76 % 1021,8 hPa 0,0 l/m 5,9 km/h (2 Bft) NO 0,00 h 0,051 mm 0 W/m 7,8 C 12,0 C 8,5 km/h (2 Bft)
28/09/2008 07:00 11,9 C 76 % 1021,7 hPa 0,0 l/m 4,4 km/h (1 Bft) NO 0,03 h 0,025 mm 16 W/m 7,9 C 11,9 C 6,9 km/h (2 Bft)
28/09/2008 08:00 12,9 C 74 % 1021,7 hPa 0,0 l/m 5,8 km/h (2 Bft) O-NO 0,38 h 0,025 mm 93 W/m 8,4 C 12,9 C 8,1 km/h (2 Bft)
28/09/2008 09:00 15,5 C 66 % 1021,8 hPa 0,0 l/m 1,4 km/h (1 Bft) NE 1,00 h 0,076 mm 286 W/m 9,3 C 15,5 C 2,7 km/h (1 Bft)
28/09/2008 10:00 18,1 C 59 % 1021,8 hPa 0,0 l/m 2,7 km/h (1 Bft) E 1,00 h 0,152 mm 444 W/m 10,0 C 18,1 C 5,4 km/h (1 Bft)
28/09/2008 11:00 19,2 C 54 % 1021,6 hPa 0,0 l/m 7,8 km/h (2 Bft) S 1,00 h 0,279 mm 580 W/m 9,6 C 19,2 C 12,0 km/h (2 Bft)
28/09/2008 12:00 19,9 C 53 % 1021,4 hPa 0,0 l/m 9,1 km/h (2 Bft) S 0,82 h 0,381 mm 636 W/m 10,0 C 19,9 C 14,0 km/h (3 Bft)
28/09/2008 13:00 19,4 C 57 % 1021,2 hPa 0,0 l/m 11,9 km/h (2 Bft) S 0,37 h 0,432 mm 442 W/m 10,6 C 19,4 C 17,6 km/h (3 Bft)
28/09/2008 14:00 19,6 C 58 % 1020,6 hPa 0,0 l/m 11,8 km/h (2 Bft) S-SE 0,53 h 0,330 mm 483 W/m 11,1 C 19,6 C 17,2 km/h (3 Bft)
28/09/2008 15:00 18,5 C 61 % 1020,4 hPa 0,0 l/m 9,3 km/h (2 Bft) S-SE 0,13 h 0,356 mm 218 W/m 10,9 C 18,5 C 14,3 km/h (3 Bft)
28/09/2008 16:00 17,6 C 62 % 1020,5 hPa 0,0 l/m 5,0 km/h (1 Bft) S-SE 0,00 h 0,178 mm 88 W/m 10,3 C 17,6 C 8,1 km/h (2 Bft)
28/09/2008 17:00 17,3 C 61 % 1020,5 hPa 0,0 l/m 4,6 km/h (1 Bft) S-SE 0,00 h 0,076 mm 38 W/m 9,6 C 17,3 C 6,6 km/h (2 Bft)
28/09/2008 18:00 16,8 C 60 % 1020,5 hPa 0,0 l/m 3,1 km/h (1 Bft) SE 0,00 h 0,051 mm 11 W/m 9,0 C 16,8 C 5,2 km/h (1 Bft)
28/09/2008 19:00 16,4 C 62 % 1020,6 hPa 0,0 l/m 0,8 km/h (0 Bft) SE 0,00 h 0,025 mm 0 W/m 9,2 C 16,4 C 1,4 km/h (1 Bft)
28/09/2008 20:00 15,9 C 64 % 1020,7 hPa 0,0 l/m 1,8 km/h (1 Bft) SE 0,00 h 0,025 mm 0 W/m 9,2 C 15,9 C 3,1 km/h (1 Bft)
28/09/2008 21:00 15,8 C 65 % 1020,8 hPa 0,0 l/m 2,2 km/h (1 Bft) SE 0,00 h 0,051 mm 0 W/m 9,1 C 15,8 C 3,1 km/h (1 Bft)
28/09/2008 22:00 15,7 C 66 % 1020,9 hPa 0,0 l/m 3,3 km/h (1 Bft) SE 0,00 h 0,051 mm 0 W/m 9,3 C 15,7 C 4,5 km/h (1 Bft)
28/09/2008 23:00 15,1 C 71 % 1020,6 hPa 0,0 l/m 3,5 km/h (1 Bft) O 0,00 h 0,051 mm 0 W/m 9,8 C 15,1 C 5,1 km/h (1 Bft)
Min-Date _ 27/09/08 26/09/08 23/09/08 - 22/09/08 - - - - 27/09/08 27/09/08 22/09/08
_ Min-Heure 06:06 10:43 06:00 - 00:00 - - - - 06:02 06:06 00:00
Minimum _ 10,8 C 45 % 1008,9 hPa - 0,0 km/h (0 Bft) - - - - 6,2 C 10,8 C 0,0 km/h (0 Bft)
Max-Date _ 26/09/08 22/09/08 27/09/08 22/09/08 23/09/08 - 22/09/08 23/09/08 23/09/08 22/09/08 26/09/08 23/09/08
_ Max-Heure 12:48 11:01 02:15 08:42 13:01 - 10:47 12:00 13:23 13:07 12:48 13:01
Maximum _ 22,3 C 96 % 1022,8 hPa 4,6 l/m 30,6 km/h
E-NE (5 Bft)
- 0,02 h 0,533 mm 983 W/m 14,5 C 22,3 C 40,2 km/h
E-NE (6 Bft)
Moyenne _ 15,6 C 70 % 1016,3 hPa #10,2 l/m 6,1 km/h (2 Bft) O-NO #29:22 h #18,547 mm 240 W/m 10,0 C 15,6 C 9,1 km/h (2 Bft)
Roquefort les pins